Los Angeles, California
Traffic Map
Current Weather Conditions
Los Angeles, California
Clear
Clear
77°
Feels Like: 79°
Wind Chill: 77° Ceiling: Unl
Heat Index: 79° Visibility: 10mi
Dew Point: 62° Wind: 3mph
Humidity: 60% Direction: ° ()
Pressure: 29.9in Gusts: 0mph
Raw Report DataKCQT 212147Z AUTO VRB03KT 10SM CLR 25/17 A2990 RMK AO2 SLP123 T02500167
Traffic Incident Summary
Active as of:
Severity:
Category:
InformationThere was an issue retrieving the traffic information for this location. Please try a different location or try again shortly.
Advertisements
Track Severe Weather on mobile